createdAt,value
2019-01-16T00:00:17.753Z,96919.59
2019-01-16T00:03:05.587Z,96920.75
2019-01-16T00:06:12.597Z,96915.49
2019-01-16T00:09:19.612Z,96921.66
2019-01-16T00:12:07.391Z,96909.73
2019-01-16T00:17:50.388Z,96909.98
2019-01-16T00:23:27.420Z,96917.34
2019-01-16T00:29:04.452Z,96915.98
2019-01-16T00:32:11.410Z,96917.39
2019-01-16T00:37:53.656Z,96908.05
2019-01-16T00:41:00.650Z,96901.88
2019-01-16T00:43:48.456Z,96904.28
2019-01-16T00:52:07.003Z,96886.58
2019-01-16T00:55:13.971Z,96887.28
2019-01-16T01:00:56.548Z,96890.64
2019-01-16T01:03:44.332Z,96876.19
2019-01-16T01:06:53.007Z,96882.31
2019-01-16T01:09:59.985Z,96877.14
2019-01-16T01:13:08.867Z,96886.41
2019-01-16T01:19:05.853Z,96879.34
2019-01-16T01:21:53.653Z,96874.27
2019-01-16T01:24:41.433Z,96883.38
2019-01-16T01:27:48.435Z,96884.37
2019-01-16T01:30:36.216Z,96883.30
2019-01-16T01:33:24.046Z,96876.66
2019-01-16T01:36:31.042Z,96884.01
2019-01-16T01:39:18.851Z,96882.17
2019-01-16T01:42:25.853Z,96879.41
2019-01-16T01:45:32.864Z,96889.43
2019-01-16T01:48:20.629Z,96884.20
2019-01-16T01:51:27.645Z,96881.95
2019-01-16T02:02:40.422Z,96873.67
2019-01-16T02:08:22.772Z,96871.84
2019-01-16T02:11:10.596Z,96869.86
2019-01-16T02:16:53.016Z,96873.73
2019-01-16T02:20:01.748Z,96872.73
2019-01-16T02:23:09.347Z,96869.41
2019-01-16T02:26:16.419Z,96875.76
2019-01-16T02:29:23.448Z,96867.00
2019-01-16T02:37:55.014Z,96859.44
2019-01-16T02:41:01.983Z,96863.84
2019-01-16T02:46:44.766Z,96857.88
2019-01-16T02:52:27.810Z,96845.63
2019-01-16T02:55:15.612Z,96838.01
2019-01-16T02:58:22.619Z,96831.85
2019-01-16T03:01:29.640Z,96832.36
2019-01-16T03:04:36.593Z,96824.85
2019-01-16T03:07:24.424Z,96830.64
2019-01-16T03:10:31.429Z,96822.73
2019-01-16T03:13:38.434Z,96817.20
2019-01-16T03:16:45.424Z,96820.05
2019-01-16T03:19:52.437Z,96815.52
2019-01-16T03:26:07.834Z,96815.56
2019-01-16T03:40:49.700Z,96791.45
2019-01-16T03:43:56.655Z,96788.30
2019-01-16T03:47:03.675Z,96787.09
2019-01-16T03:50:10.627Z,96774.49
2019-01-16T03:53:17.635Z,96771.16
2019-01-16T03:56:24.691Z,96771.34
2019-01-16T03:59:12.530Z,96768.83
2019-01-16T04:02:01.793Z,96765.73
2019-01-16T04:05:08.797Z,96765.16
2019-01-16T04:07:56.617Z,96764.73
2019-01-16T04:11:03.640Z,96755.19
2019-01-16T04:14:10.605Z,96754.67
2019-01-16T04:17:17.630Z,96751.44
2019-01-16T04:20:26.126Z,96753.55
2019-01-16T04:23:33.104Z,96746.03
2019-01-16T04:26:40.120Z,96747.26
2019-01-16T04:32:17.168Z,96737.70
2019-01-16T04:35:04.954Z,96741.00
2019-01-16T04:40:47.507Z,96735.50
2019-01-16T04:43:35.373Z,96725.20
2019-01-16T04:46:42.343Z,96732.53
2019-01-16T04:49:49.370Z,96729.86
2019-01-16T04:52:37.201Z,96726.28
2019-01-16T04:55:45.666Z,96725.34
2019-01-16T04:58:52.718Z,96716.75
2019-01-16T05:01:40.494Z,96720.61
2019-01-16T05:04:28.339Z,96712.94
2019-01-16T05:07:35.348Z,96712.80
2019-01-16T05:13:37.649Z,96712.70
2019-01-16T05:16:44.656Z,96707.87
2019-01-16T05:19:51.660Z,96710.05
2019-01-16T05:22:58.633Z,96709.23
2019-01-16T05:26:05.641Z,96700.27
2019-01-16T05:28:53.432Z,96697.64
2019-01-16T05:32:00.429Z,96697.41
2019-01-16T05:34:48.208Z,96699.16
2019-01-16T05:37:55.230Z,96705.02
2019-01-16T05:41:02.198Z,96702.67
2019-01-16T05:47:03.701Z,96679.66
2019-01-16T05:55:41.708Z,96677.92
2019-01-16T06:01:44.920Z,96674.39
2019-01-16T06:04:51.933Z,96668.72
2019-01-16T06:07:39.739Z,96657.36
2019-01-16T06:10:48.230Z,96659.12
2019-01-16T06:13:55.205Z,96655.56
2019-01-16T06:17:02.215Z,96658.66
2019-01-16T06:19:54.060Z,96665.41
2019-01-16T06:22:58.760Z,96668.94
2019-01-16T06:26:06.132Z,96671.79
2019-01-16T06:29:13.504Z,96675.72
2019-01-16T06:32:20.552Z,96678.73
2019-01-16T06:40:33.325Z,96669.80
2019-01-16T06:43:21.113Z,96657.67
2019-01-16T06:51:39.716Z,96679.84
2019-01-16T06:54:46.726Z,96666.12
2019-01-16T06:57:34.551Z,96663.33
2019-01-16T07:03:17.241Z,96652.29
2019-01-16T07:06:24.218Z,96660.52
2019-01-16T07:09:31.263Z,96654.09
2019-01-16T07:15:48.149Z,96659.55
2019-01-16T07:24:48.394Z,96651.28
2019-01-16T07:30:44.599Z,96646.31
2019-01-16T07:33:32.431Z,96644.85
2019-01-16T07:36:20.223Z,96635.41
2019-01-16T07:42:02.917Z,96626.80
2019-01-16T07:44:50.697Z,96616.83
2019-01-16T07:47:57.756Z,96618.97
2019-01-16T07:50:45.571Z,96616.76
2019-01-16T07:53:33.349Z,96614.84
2019-01-16T07:59:00.839Z,96621.20
2019-01-16T08:01:48.625Z,96618.11
2019-01-16T08:04:36.445Z,96610.45
2019-01-16T08:07:44.881Z,96606.38
2019-01-16T08:10:36.086Z,96608.05
2019-01-16T08:13:44.559Z,96607.66
2019-01-16T08:16:53.062Z,96606.53
2019-01-16T08:22:39.639Z,96592.70
2019-01-16T08:25:27.448Z,96591.32
2019-01-16T08:28:15.271Z,96594.53
2019-01-16T08:31:03.100Z,96590.36
2019-01-16T08:33:50.905Z,96596.16
2019-01-16T08:36:57.980Z,96589.56
2019-01-16T08:45:20.276Z,96583.63
2019-01-16T08:48:08.045Z,96582.08
2019-01-16T08:53:31.127Z,96566.18
2019-01-16T08:58:54.508Z,96568.72
2019-01-16T09:01:42.337Z,96568.20
2019-01-16T09:04:30.110Z,96564.57
2019-01-16T09:07:37.130Z,96563.84
2019-01-16T09:10:45.570Z,96563.86
2019-01-16T09:13:52.560Z,96565.84
2019-01-16T09:16:59.569Z,96561.97
2019-01-16T09:23:15.012Z,96555.19
2019-01-16T09:26:02.785Z,96553.44
2019-01-16T09:29:09.800Z,96547.56
2019-01-16T09:31:57.605Z,96547.38
2019-01-16T09:34:45.441Z,96563.28
2019-01-16T09:37:33.275Z,96567.95
2019-01-16T09:46:11.244Z,96565.50
2019-01-16T09:48:59.042Z,96557.32
2019-01-16T09:51:46.872Z,96557.39
2019-01-16T09:54:34.709Z,96548.06
2019-01-16T09:57:22.500Z,96546.90
2019-01-16T10:00:10.328Z,96539.42
2019-01-16T10:03:17.329Z,96531.96
2019-01-16T10:06:24.297Z,96526.98
2019-01-16T10:09:31.311Z,96522.39
2019-01-16T10:12:38.343Z,96513.11
2019-01-16T10:15:46.904Z,96505.15
2019-01-16T10:21:43.104Z,96488.30
2019-01-16T10:27:06.317Z,96484.88
2019-01-16T10:29:54.148Z,96485.67
2019-01-16T10:33:01.229Z,96479.23
2019-01-16T10:35:49.052Z,96469.23
2019-01-16T10:44:01.708Z,96463.20
2019-01-16T10:55:18.073Z,96445.02
2019-01-16T10:58:05.868Z,96438.00
2019-01-16T11:03:48.614Z,96432.42
2019-01-16T11:06:36.433Z,96431.14
2019-01-16T11:09:44.916Z,96434.71
2019-01-16T11:12:51.941Z,96433.78
2019-01-16T11:15:58.899Z,96439.95
2019-01-16T11:18:46.736Z,96434.06
2019-01-16T11:21:53.710Z,96431.69
2019-01-16T11:25:00.748Z,96421.91
2019-01-16T11:30:43.816Z,96417.11
2019-01-16T11:33:50.840Z,96422.88
2019-01-16T11:36:57.813Z,96412.05
2019-01-16T11:42:40.284Z,96389.41
2019-01-16T11:45:28.066Z,96397.95
2019-01-16T11:48:15.897Z,96378.39
2019-01-16T11:53:52.922Z,96370.61
2019-01-16T11:56:40.750Z,96367.50
2019-01-16T12:02:23.823Z,96350.68
2019-01-16T12:07:47.287Z,96339.73
2019-01-16T12:10:54.307Z,96343.83
2019-01-16T12:14:01.356Z,96336.01
2019-01-16T12:17:08.381Z,96327.37
2019-01-16T12:20:15.336Z,96315.42
2019-01-16T12:23:03.160Z,96308.58
2019-01-16T12:25:50.979Z,96311.16
2019-01-16T12:31:33.687Z,96297.53
2019-01-16T12:34:40.696Z,96290.53
2019-01-16T12:37:28.482Z,96286.38
2019-01-16T12:40:35.508Z,96289.02
2019-01-16T12:46:31.461Z,96287.30
2019-01-16T12:52:27.672Z,96263.53
2019-01-16T12:55:15.501Z,96269.13
2019-01-16T12:58:03.335Z,96264.02
2019-01-16T13:09:31.538Z,96247.00
2019-01-16T13:15:49.247Z,96235.94
2019-01-16T13:18:37.033Z,96234.88
2019-01-16T13:21:45.513Z,96238.34
2019-01-16T13:24:52.474Z,96237.06
2019-01-16T13:30:35.075Z,96237.31
2019-01-16T13:36:01.885Z,96237.89
2019-01-16T13:38:49.693Z,96235.06
2019-01-16T13:45:05.083Z,96229.47
2019-01-16T13:54:01.571Z,96210.77
2019-01-16T14:04:57.557Z,96195.43
2019-01-16T14:07:45.311Z,96194.47
2019-01-16T14:10:33.136Z,96197.21
2019-01-16T14:13:20.960Z,96193.13
2019-01-16T14:16:08.787Z,96185.95
2019-01-16T14:21:45.804Z,96180.67
2019-01-16T14:24:33.630Z,96178.97
2019-01-16T14:27:40.642Z,96178.69
2019-01-16T14:30:49.131Z,96172.17
2019-01-16T14:33:36.919Z,96163.62
2019-01-16T14:36:45.400Z,96157.50
2019-01-16T14:42:22.421Z,96159.19
2019-01-16T14:47:59.480Z,96149.91
2019-01-16T14:50:47.291Z,96153.48
2019-01-16T14:56:10.431Z,96139.85
2019-01-16T15:05:05.012Z,96130.48
2019-01-16T15:08:11.972Z,96122.02
2019-01-16T15:11:18.997Z,96126.08
2019-01-16T15:14:06.783Z,96120.65
2019-01-16T15:16:54.608Z,96116.80
2019-01-16T15:19:42.398Z,96117.05
2019-01-16T15:22:30.227Z,96118.50
2019-01-16T15:33:22.379Z,96108.61
2019-01-16T15:38:59.430Z,96108.95
2019-01-16T15:44:37.030Z,96092.99
2019-01-16T15:47:12.502Z,96103.38
2019-01-16T15:50:00.295Z,96091.53
2019-01-16T15:56:15.701Z,96097.67
2019-01-16T15:59:22.671Z,96088.16
2019-01-16T16:02:10.468Z,96084.30
2019-01-16T16:10:17.628Z,96077.89
2019-01-16T16:13:24.672Z,96075.52
2019-01-16T16:16:12.513Z,96068.70
2019-01-16T16:19:19.535Z,96068.44
2019-01-16T16:22:07.335Z,96065.54
2019-01-16T16:25:14.351Z,96067.76
2019-01-16T16:28:02.177Z,96064.10
2019-01-16T16:33:59.858Z,96062.75
2019-01-16T16:39:47.691Z,96060.72
2019-01-16T16:42:54.688Z,96062.16
2019-01-16T16:45:42.521Z,96057.38
2019-01-16T16:51:57.932Z,96047.19
2019-01-16T16:55:04.943Z,96044.94
2019-01-16T17:00:54.685Z,96042.43
2019-01-16T17:03:42.529Z,96040.81
2019-01-16T17:09:06.009Z,96036.41
2019-01-16T17:11:53.773Z,96029.17
2019-01-16T17:14:41.585Z,96035.95
2019-01-16T17:17:50.257Z,96023.28
2019-01-16T17:20:38.182Z,96021.94
2019-01-16T17:23:46.716Z,96022.80
2019-01-16T17:26:34.524Z,96019.39
2019-01-16T17:29:41.793Z,96015.53
2019-01-16T17:32:50.469Z,96020.73
2019-01-16T17:35:38.811Z,96016.53
2019-01-16T17:41:21.298Z,96010.96
2019-01-16T17:44:09.106Z,96010.30
2019-01-16T17:46:56.894Z,96008.53
2019-01-16T17:55:35.730Z,95999.91
2019-01-16T18:09:29.845Z,96000.83
2019-01-16T18:12:36.864Z,96000.29
2019-01-16T18:15:45.308Z,95994.77
2019-01-16T18:18:52.331Z,95992.69
2019-01-16T18:24:48.542Z,95986.27
2019-01-16T18:27:55.506Z,95994.77
2019-01-16T18:31:04.010Z,95987.28
2019-01-16T18:36:41.036Z,95982.06
2019-01-16T18:39:49.520Z,95983.75
2019-01-16T18:42:37.310Z,95981.46
2019-01-16T18:45:45.796Z,95980.92
2019-01-16T18:48:33.626Z,95978.07
2019-01-16T18:51:40.595Z,95979.99
2019-01-16T19:00:17.684Z,95977.14
2019-01-16T19:03:05.507Z,95975.00
2019-01-16T19:06:12.470Z,95968.79
2019-01-16T19:09:20.018Z,95965.98
2019-01-16T19:12:27.289Z,95966.71
2019-01-16T19:18:23.612Z,95967.38
2019-01-16T19:21:11.397Z,95972.61
2019-01-16T19:23:59.230Z,95965.17
2019-01-16T19:32:31.170Z,95954.75
2019-01-16T19:35:18.945Z,95957.66
2019-01-16T19:41:01.338Z,95954.33
2019-01-16T19:44:08.371Z,95955.22
2019-01-16T19:50:04.323Z,95957.05
2019-01-16T19:53:11.300Z,95956.83
2019-01-16T19:56:18.394Z,95959.05
2019-01-16T19:59:25.429Z,95958.59
2019-01-16T20:02:13.263Z,95960.91
2019-01-16T20:05:01.116Z,95958.62
2019-01-16T20:11:16.531Z,95953.03
2019-01-16T20:17:12.847Z,95952.44
2019-01-16T20:20:00.631Z,95943.69
2019-01-16T20:22:48.453Z,95938.00
2019-01-16T20:25:36.296Z,95945.77
2019-01-16T20:28:24.158Z,95952.30
2019-01-16T20:31:12.044Z,95946.69
2019-01-16T20:34:20.554Z,95947.34
2019-01-16T20:37:08.363Z,95945.22
2019-01-16T20:42:50.713Z,95949.03
2019-01-16T20:48:33.220Z,95952.32
2019-01-16T20:51:21.056Z,95943.22
2019-01-16T20:54:08.899Z,95944.75
2019-01-16T20:57:15.882Z,95946.16
2019-01-16T21:00:24.425Z,95943.59
2019-01-16T21:06:20.674Z,95942.69
2019-01-16T21:09:28.244Z,95939.09
2019-01-16T21:14:52.138Z,95933.66
2019-01-16T21:17:59.295Z,95924.33
2019-01-16T21:20:47.114Z,95923.19
2019-01-16T21:23:34.940Z,95919.85
2019-01-16T21:26:22.731Z,95918.85
2019-01-16T21:29:10.591Z,95921.72
2019-01-16T21:31:58.433Z,95908.04
2019-01-16T21:35:05.434Z,95908.06
2019-01-16T21:41:07.496Z,95900.32
2019-01-16T21:43:55.325Z,95903.09
2019-01-16T21:49:51.564Z,95899.56
2019-01-16T21:58:42.797Z,95882.42
2019-01-16T22:01:51.856Z,95884.35
2019-01-16T22:07:48.818Z,95883.75
2019-01-16T22:10:36.688Z,95889.55
2019-01-16T22:13:24.799Z,95880.98
2019-01-16T22:18:47.993Z,95880.27
2019-01-16T22:21:35.770Z,95873.41
2019-01-16T22:35:46.911Z,95873.66
2019-01-16T22:41:49.017Z,95875.09
2019-01-16T22:44:36.845Z,95867.48
2019-01-16T22:47:45.288Z,95859.12
2019-01-16T22:53:27.973Z,95857.58
2019-01-16T22:56:15.879Z,95852.77
2019-01-16T22:59:03.675Z,95855.20
2019-01-16T23:01:51.497Z,95850.56
2019-01-16T23:08:06.901Z,95837.55
2019-01-16T23:24:18.263Z,95845.73
2019-01-16T23:32:35.037Z,95841.06
2019-01-16T23:35:42.021Z,95841.33
2019-01-16T23:38:49.253Z,95833.94
2019-01-16T23:41:37.109Z,95830.62
2019-01-16T23:44:44.077Z,95834.34
2019-01-16T23:50:26.371Z,95834.66
2019-01-16T23:53:33.381Z,95828.13
2019-01-16T23:56:21.193Z,95824.02
2019-01-16T23:59:09.022Z,95828.91
